Time;durP1;ratioP1;P1;durP2;ratioP2;P2;SDS_P1;SDS_P2;PMS_P1;PMS_P2;Temp;Humidity;BMP_temperature;BMP_pressure;BME280_temperature;BME280_humidity;BME280_pressure;Samples;Min_cycle;Max_cycle;Signal;HPM_P1;HPM_P2
2023/02/28 00:01:12;;;;;;;1.55;1.45;;;;;;;;;;5036007;28;20819;-84
2023/02/28 00:03:39;;;;;;;1.75;1.30;;;;;;;;;;5051973;28;20293;-82
2023/02/28 00:06:09;;;;;;;1.48;1.38;;;;;;;;;;5055864;28;20632;-83
2023/02/28 00:08:37;;;;;;;1.75;1.10;;;;;;;;;;5054961;28;20197;-84
2023/02/28 00:11:07;;;;;;;1.48;1.38;;;;;;;;;;5055910;28;20312;-85
2023/02/28 00:13:37;;;;;;;1.15;1.05;;;;;;;;;;5056955;28;20312;-83
2023/02/28 00:16:08;;;;;;;1.27;1.17;;;;;;;;;;5055066;28;20190;-84
2023/02/28 00:18:35;;;;;;;1.88;1.77;;;;;;;;;;5054780;28;20293;-83
2023/02/28 00:21:05;;;;;;;5.05;1.70;;;;;;;;;;5055419;28;20659;-84
2023/02/28 00:23:34;;;;;;;1.70;1.60;;;;;;;;;;5055421;28;20630;-83
2023/02/28 00:26:02;;;;;;;1.77;1.40;;;;;;;;;;5055027;28;20294;-83
2023/02/28 00:28:29;;;;;;;1.83;1.50;;;;;;;;;;5054659;28;20284;-83
2023/02/28 00:30:57;;;;;;;1.60;1.35;;;;;;;;;;5053533;28;20765;-83
2023/02/28 00:33:24;;;;;;;1.23;1.05;;;;;;;;;;5041576;28;20793;-83
2023/02/28 00:35:52;;;;;;;0.93;0.93;;;;;;;;;;5035471;28;20230;-83
2023/02/28 00:38:19;;;;;;;1.33;1.15;;;;;;;;;;5034132;28;20225;-83
2023/02/28 00:40:48;;;;;;;1.33;1.20;;;;;;;;;;5034905;28;20664;-83
2023/02/28 00:43:15;;;;;;;1.33;1.23;;;;;;;;;;5034386;28;20641;-83
2023/02/28 00:45:43;;;;;;;1.27;1.17;;;;;;;;;;5034560;28;20221;-83
2023/02/28 00:48:10;;;;;;;1.30;1.20;;;;;;;;;;5033901;28;20265;-83
2023/02/28 00:50:38;;;;;;;1.30;1.20;;;;;;;;;;5033958;28;20234;-83
2023/02/28 00:53:05;;;;;;;1.52;1.00;;;;;;;;;;5034851;28;20240;-82
2023/02/28 00:55:32;;;;;;;2.25;1.25;;;;;;;;;;5034819;28;20663;-83
2023/02/28 00:58:01;;;;;;;1.17;1.08;;;;;;;;;;5034592;28;20213;-83
2023/02/28 01:00:29;;;;;;;0.75;0.75;;;;;;;;;;5034837;28;20313;-83
2023/02/28 01:02:56;;;;;;;1.35;0.90;;;;;;;;;;5043631;28;20296;-83
2023/02/28 01:05:24;;;;;;;0.93;0.80;;;;;;;;;;5054478;28;20630;-83
2023/02/28 01:07:51;;;;;;;1.30;1.13;;;;;;;;;;5053910;28;20292;-84
2023/02/28 01:10:20;;;;;;;2.78;1.17;;;;;;;;;;5053403;28;21145;-84
2023/02/28 01:12:48;;;;;;;1.00;1.00;;;;;;;;;;5054326;28;20682;-84
2023/02/28 01:15:17;;;;;;;0.80;0.80;;;;;;;;;;5054282;28;20701;-83
2023/02/28 01:17:44;;;;;;;0.80;0.80;;;;;;;;;;5054618;28;20308;-83
2023/02/28 01:20:13;;;;;;;0.95;0.95;;;;;;;;;;5053672;28;20714;-83
2023/02/28 01:22:40;;;;;;;0.65;0.65;;;;;;;;;;5054718;28;20205;-82
2023/02/28 01:25:09;;;;;;;0.85;0.85;;;;;;;;;;5053550;28;20198;-84
2023/02/28 01:27:36;;;;;;;0.80;0.80;;;;;;;;;;5053877;28;20205;-83
2023/02/28 01:30:05;;;;;;;0.70;0.70;;;;;;;;;;5053914;28;20986;-84
2023/02/28 01:32:33;;;;;;;0.88;0.88;;;;;;;;;;5054367;28;20826;-84
2023/02/28 01:35:01;;;;;;;1.00;0.95;;;;;;;;;;5053909;28;20313;-83
2023/02/28 01:37:29;;;;;;;0.80;0.80;;;;;;;;;;5053518;28;20296;-83
2023/02/28 01:39:56;;;;;;;0.70;0.70;;;;;;;;;;5053600;28;20554;-83
2023/02/28 01:42:23;;;;;;;0.70;0.70;;;;;;;;;;5054425;28;20316;-83
2023/02/28 01:45:09;;;;;;;0.70;0.70;;;;;;;;;;5053793;28;20624;-83
2023/02/28 01:47:41;;;;;;;0.93;0.90;;;;;;;;;;5054300;28;20196;-84
2023/02/28 01:50:13;;;;;;;0.90;0.90;;;;;;;;;;5052806;28;20205;-83
2023/02/28 01:52:41;;;;;;;0.73;0.73;;;;;;;;;;5053578;28;20196;-83
2023/02/28 01:55:10;;;;;;;0.70;0.70;;;;;;;;;;5052723;28;20244;-84
2023/02/28 01:57:41;;;;;;;1.70;1.13;;;;;;;;;;5053328;28;20232;-83
2023/02/28 02:00:15;;;;;;;1.13;1.02;;;;;;;;;;5052935;28;20196;-84
2023/02/28 02:02:46;;;;;;;1.05;1.00;;;;;;;;;;5045075;28;20209;-84
2023/02/28 02:05:17;;;;;;;1.08;1.05;;;;;;;;;;5054634;22;20820;-80
2023/02/28 02:07:46;;;;;;;0.75;0.75;;;;;;;;;;5052185;28;20215;-80
2023/02/28 02:10:22;;;;;;;0.80;0.80;;;;;;;;;;5051630;28;20224;-81
2023/02/28 02:13:06;;;;;;;1.10;1.10;;;;;;;;;;5052519;28;20201;-81
2023/02/28 02:15:38;;;;;;;0.80;0.80;;;;;;;;;;5052473;28;20225;-82
2023/02/28 02:18:19;;;;;;;0.80;0.80;;;;;;;;;;5051927;28;20208;-80
2023/02/28 02:21:37;;;;;;;0.80;0.80;;;;;;;;;;5052639;28;20224;-81
2023/02/28 02:24:42;;;;;;;0.95;0.90;;;;;;;;;;5034705;28;20224;-81
2023/02/28 02:27:21;;;;;;;0.98;0.98;;;;;;;;;;5032917;28;20205;-80
2023/02/28 02:30:31;;;;;;;0.90;0.90;;;;;;;;;;5032252;28;20222;-81
2023/02/28 02:33:24;;;;;;;1.25;1.23;;;;;;;;;;5032169;28;20285;-80
2023/02/28 02:35:56;;;;;;;0.90;0.90;;;;;;;;;;5032225;28;20227;-81
2023/02/28 02:38:34;;;;;;;1.77;1.15;;;;;;;;;;5031621;28;20202;-81
2023/02/28 02:41:15;;;;;;;0.75;0.75;;;;;;;;;;5032168;28;20222;-81
2023/02/28 02:43:47;;;;;;;1.10;1.10;;;;;;;;;;5032199;28;20209;-81
2023/02/28 02:46:20;;;;;;;0.70;0.70;;;;;;;;;;5032366;28;20202;-79
2023/02/28 02:48:48;;;;;;;0.93;0.93;;;;;;;;;;5031189;28;20326;-81
2023/02/28 02:51:19;;;;;;;0.70;0.70;;;;;;;;;;5032365;28;20670;-81
2023/02/28 02:53:50;;;;;;;1.15;1.00;;;;;;;;;;5031556;28;20204;-81
2023/02/28 02:56:22;;;;;;;0.90;0.90;;;;;;;;;;5032036;28;20229;-82
2023/02/28 02:58:52;;;;;;;1.25;1.15;;;;;;;;;;5031475;28;20194;-81
2023/02/28 03:01:27;;;;;;;0.93;0.88;;;;;;;;;;5032236;28;20210;-81
2023/02/28 03:03:57;;;;;;;1.05;0.95;;;;;;;;;;5031809;28;20747;-80
2023/02/28 03:06:26;;;;;;;0.80;0.80;;;;;;;;;;5031766;28;20305;-81
2023/02/28 03:08:53;;;;;;;0.60;0.60;;;;;;;;;;5030445;28;20713;-80
2023/02/28 03:11:21;;;;;;;0.80;0.80;;;;;;;;;;5031570;28;20638;-81
2023/02/28 03:14:17;;;;;;;1.10;1.10;;;;;;;;;;5031688;28;20210;-82
2023/02/28 03:17:09;;;;;;;0.85;0.85;;;;;;;;;;5031996;28;20674;-80
2023/02/28 03:19:49;;;;;;;1.67;1.10;;;;;;;;;;5031380;28;20226;-80
2023/02/28 03:22:35;;;;;;;1.30;1.05;;;;;;;;;;5031780;28;20195;-81
2023/02/28 03:25:08;;;;;;;1.05;1.00;;;;;;;;;;5031984;28;20561;-81
2023/02/28 03:27:40;;;;;;;1.08;1.08;;;;;;;;;;5034322;28;20199;-81
2023/02/28 03:30:14;;;;;;;1.00;1.00;;;;;;;;;;5034705;28;20229;-81
2023/02/28 03:32:46;;;;;;;0.80;0.80;;;;;;;;;;5035350;28;20840;-81
2023/02/28 03:35:21;;;;;;;0.85;0.85;;;;;;;;;;5035489;28;20202;-80
2023/02/28 03:37:54;;;;;;;0.88;0.88;;;;;;;;;;5035148;28;20202;-81
2023/02/28 03:40:26;;;;;;;0.95;0.95;;;;;;;;;;5035664;28;20218;-81
2023/02/28 03:42:58;;;;;;;0.70;0.70;;;;;;;;;;5038107;28;20287;-81
2023/02/28 03:45:28;;;;;;;0.80;0.80;;;;;;;;;;5037766;28;20198;-82
2023/02/28 03:47:59;;;;;;;0.98;0.98;;;;;;;;;;5037846;28;20205;-82
2023/02/28 03:50:30;;;;;;;0.90;0.90;;;;;;;;;;5037729;28;20658;-81
2023/02/28 03:53:04;;;;;;;0.90;0.90;;;;;;;;;;5038105;28;20202;-82
2023/02/28 03:55:36;;;;;;;0.98;0.98;;;;;;;;;;5037314;28;20226;-81
2023/02/28 03:58:09;;;;;;;0.90;0.90;;;;;;;;;;5036939;28;20202;-81
2023/02/28 04:00:39;;;;;;;0.85;0.85;;;;;;;;;;5037360;28;20313;-82
2023/02/28 04:03:06;;;;;;;1.00;1.00;;;;;;;;;;5037527;28;20206;-81
2023/02/28 04:05:34;;;;;;;2.20;1.02;;;;;;;;;;5037117;28;20222;-81
2023/02/28 04:08:08;;;;;;;0.82;0.82;;;;;;;;;;5036876;28;20660;-81
2023/02/28 04:10:36;;;;;;;0.95;0.95;;;;;;;;;;5037387;28;20245;-82
2023/02/28 04:13:03;;;;;;;1.00;1.00;;;;;;;;;;5037437;28;20297;-82
2023/02/28 04:15:31;;;;;;;1.17;1.08;;;;;;;;;;5037248;28;20241;-82
2023/02/28 04:17:59;;;;;;;0.73;0.73;;;;;;;;;;5036304;28;20305;-81
2023/02/28 04:20:27;;;;;;;0.80;0.80;;;;;;;;;;5036576;28;20309;-82
2023/02/28 04:22:54;;;;;;;1.05;0.80;;;;;;;;;;5037500;28;20216;-81
2023/02/28 04:25:23;;;;;;;0.70;0.70;;;;;;;;;;5034620;28;20278;-81
2023/02/28 04:27:50;;;;;;;0.80;0.80;;;;;;;;;;5036587;28;20794;-81
2023/02/28 04:30:18;;;;;;;0.95;0.95;;;;;;;;;;5036233;28;20309;-82
2023/02/28 04:32:46;;;;;;;0.90;0.90;;;;;;;;;;5036942;28;20278;-81
2023/02/28 04:35:13;;;;;;;0.82;0.70;;;;;;;;;;5036096;28;20293;-82
2023/02/28 04:37:41;;;;;;;0.90;0.90;;;;;;;;;;5035753;28;20248;-81
2023/02/28 04:40:10;;;;;;;0.80;0.80;;;;;;;;;;5035445;28;20262;-81
2023/02/28 04:42:39;;;;;;;0.77;0.77;;;;;;;;;;5036080;28;20278;-82
2023/02/28 04:45:10;;;;;;;1.00;1.00;;;;;;;;;;5036275;28;20618;-81
2023/02/28 04:47:37;;;;;;;0.88;0.88;;;;;;;;;;5037821;28;20206;-81
2023/02/28 04:50:06;;;;;;;0.80;0.80;;;;;;;;;;5036901;28;20321;-81
2023/02/28 04:52:33;;;;;;;1.08;1.08;;;;;;;;;;5036402;28;20228;-81
2023/02/28 04:55:01;;;;;;;0.80;0.80;;;;;;;;;;5035587;28;20663;-80
2023/02/28 04:57:29;;;;;;;0.95;0.95;;;;;;;;;;5036447;28;20609;-81
2023/02/28 04:59:58;;;;;;;0.93;0.93;;;;;;;;;;5036707;28;20234;-81
2023/02/28 05:02:26;;;;;;;0.93;0.93;;;;;;;;;;5036991;28;20233;-82
2023/02/28 05:04:53;;;;;;;1.10;1.10;;;;;;;;;;5036707;28;20809;-81
2023/02/28 05:07:21;;;;;;;1.30;1.20;;;;;;;;;;5035677;28;20198;-81
2023/02/28 05:09:48;;;;;;;1.30;1.20;;;;;;;;;;5034393;28;20671;-81
2023/02/28 05:12:16;;;;;;;1.45;1.35;;;;;;;;;;5034979;28;20233;-81
2023/02/28 05:14:44;;;;;;;1.35;1.25;;;;;;;;;;5035262;28;20245;-81
2023/02/28 05:17:12;;;;;;;1.42;1.33;;;;;;;;;;5035804;28;20222;-81
2023/02/28 05:19:40;;;;;;;1.08;1.08;;;;;;;;;;5034668;28;20766;-80
2023/02/28 05:22:16;;;;;;;1.48;1.33;;;;;;;;;;5035138;28;20297;-81
2023/02/28 05:24:44;;;;;;;0.90;0.90;;;;;;;;;;5034885;28;20212;-81
2023/02/28 05:27:11;;;;;;;2.63;1.00;;;;;;;;;;5035669;28;20202;-81
2023/02/28 05:29:41;;;;;;;1.77;1.63;;;;;;;;;;5061434;22;21556;-87
2023/02/28 05:32:12;;;;;;;1.10;1.10;;;;;;;;;;5065220;28;20349;-84
2023/02/28 05:34:40;;;;;;;1.30;1.20;;;;;;;;;;5082245;28;20748;-84
2023/02/28 05:37:09;;;;;;;1.10;1.10;;;;;;;;;;5081440;28;20307;-84
2023/02/28 05:39:38;;;;;;;1.20;1.17;;;;;;;;;;5080397;28;20212;-85
2023/02/28 05:42:06;;;;;;;1.52;1.42;;;;;;;;;;5082417;28;20200;-84
2023/02/28 05:44:33;;;;;;;4.05;2.83;;;;;;;;;;5083048;28;20289;-84
2023/02/28 05:47:01;;;;;;;4.53;2.15;;;;;;;;;;5083816;28;20231;-85
2023/02/28 05:49:30;;;;;;;1.83;1.40;;;;;;;;;;5083106;28;20208;-85
2023/02/28 05:51:58;;;;;;;2.33;2.05;;;;;;;;;;5082657;28;20204;-84
2023/02/28 05:54:25;;;;;;;1.50;1.40;;;;;;;;;;5081345;28;20331;-85
2023/02/28 05:56:53;;;;;;;2.08;1.88;;;;;;;;;;5082934;28;20316;-84
2023/02/28 05:59:20;;;;;;;2.00;1.70;;;;;;;;;;5082377;28;20211;-84
2023/02/28 06:01:48;;;;;;;1.92;1.70;;;;;;;;;;5082534;28;20233;-85
2023/02/28 06:04:18;;;;;;;2.22;2.03;;;;;;;;;;5083070;28;20255;-84
2023/02/28 06:06:48;;;;;;;3.50;2.03;;;;;;;;;;5078746;28;20607;-85
2023/02/28 06:09:18;;;;;;;3.83;1.92;;;;;;;;;;5080155;28;20284;-86
2023/02/28 06:11:46;;;;;;;1.85;1.60;;;;;;;;;;5081936;28;20200;-85
2023/02/28 06:14:17;;;;;;;1.35;1.20;;;;;;;;;;5080368;28;20224;-85
2023/02/28 06:16:45;;;;;;;3.13;1.60;;;;;;;;;;5081754;28;20299;-85
2023/02/28 06:19:13;;;;;;;3.40;2.30;;;;;;;;;;5081900;28;20216;-85
2023/02/28 06:21:41;;;;;;;3.97;3.10;;;;;;;;;;5081513;28;20197;-86
2023/02/28 06:24:10;;;;;;;3.30;3.00;;;;;;;;;;5083635;28;20231;-86
2023/02/28 06:26:38;;;;;;;5.60;4.43;;;;;;;;;;5075673;28;20225;-88
2023/02/28 06:29:05;;;;;;;4.15;2.53;;;;;;;;;;5064165;28;20292;-85
2023/02/28 06:31:34;;;;;;;2.50;2.30;;;;;;;;;;5070409;28;20211;-85
2023/02/28 06:34:01;;;;;;;2.38;2.17;;;;;;;;;;5083353;28;20225;-85
2023/02/28 06:36:29;;;;;;;2.50;1.70;;;;;;;;;;5082606;28;20197;-85
2023/02/28 06:38:57;;;;;;;2.35;2.17;;;;;;;;;;5081276;28;20224;-85
2023/02/28 06:41:27;;;;;;;2.60;2.10;;;;;;;;;;5080730;28;20240;-85
2023/02/28 06:43:55;;;;;;;2.50;2.30;;;;;;;;;;5082973;28;20713;-84
2023/02/28 06:46:22;;;;;;;1.73;1.63;;;;;;;;;;5082160;28;20204;-85
2023/02/28 06:48:50;;;;;;;1.60;1.50;;;;;;;;;;5083483;28;20198;-85
2023/02/28 06:51:21;;;;;;;2.35;1.70;;;;;;;;;;5083235;28;20193;-85
2023/02/28 06:53:49;;;;;;;1.50;1.40;;;;;;;;;;5082192;28;20228;-85
2023/02/28 06:56:19;;;;;;;2.05;1.75;;;;;;;;;;5078564;28;20216;-85
2023/02/28 06:58:50;;;;;;;2.88;2.42;;;;;;;;;;5061910;28;20255;-86
2023/02/28 07:01:18;;;;;;;2.97;2.05;;;;;;;;;;5063307;28;20530;-84
2023/02/28 07:03:46;;;;;;;2.33;1.83;;;;;;;;;;5067140;28;20267;-85
2023/02/28 07:06:14;;;;;;;2.47;1.95;;;;;;;;;;5066959;28;20296;-84
2023/02/28 07:08:41;;;;;;;3.42;1.75;;;;;;;;;;5066489;28;20627;-84
2023/02/28 07:11:09;;;;;;;2.03;1.90;;;;;;;;;;5067083;28;20202;-85
2023/02/28 07:13:37;;;;;;;1.65;1.55;;;;;;;;;;5067012;28;20224;-84
2023/02/28 07:16:08;;;;;;;1.40;1.25;;;;;;;;;;5066799;28;20239;-84
2023/02/28 07:18:37;;;;;;;1.50;1.40;;;;;;;;;;5065685;28;20252;-85
2023/02/28 07:21:06;;;;;;;1.48;1.38;;;;;;;;;;5066933;28;20228;-84
2023/02/28 07:23:33;;;;;;;1.45;1.35;;;;;;;;;;5064228;28;20205;-84
2023/02/28 07:26:01;;;;;;;1.52;1.40;;;;;;;;;;5065573;28;20300;-85
2023/02/28 07:28:29;;;;;;;1.60;1.50;;;;;;;;;;5064401;28;20548;-85
2023/02/28 07:30:56;;;;;;;1.60;1.50;;;;;;;;;;5064626;28;20225;-85
2023/02/28 07:33:25;;;;;;;1.30;1.20;;;;;;;;;;5064556;28;20264;-85
2023/02/28 07:35:53;;;;;;;1.58;1.48;;;;;;;;;;5063601;28;20213;-85
2023/02/28 07:38:20;;;;;;;0.98;0.98;;;;;;;;;;5062386;28;20283;-85
2023/02/28 07:40:48;;;;;;;1.42;1.30;;;;;;;;;;5065615;28;20271;-84
2023/02/28 07:43:15;;;;;;;2.10;1.85;;;;;;;;;;5063798;28;20229;-84
2023/02/28 07:45:43;;;;;;;2.15;1.95;;;;;;;;;;5063151;28;20713;-84
2023/02/28 07:48:10;;;;;;;1.83;1.50;;;;;;;;;;5062229;28;20233;-85
2023/02/28 07:50:39;;;;;;;2.63;1.95;;;;;;;;;;5061759;28;20209;-84
2023/02/28 07:53:07;;;;;;;2.05;1.77;;;;;;;;;;5063000;28;20201;-85
2023/02/28 07:55:34;;;;;;;1.92;1.73;;;;;;;;;;5063238;28;20214;-85
2023/02/28 07:58:02;;;;;;;1.70;1.40;;;;;;;;;;5063690;28;20229;-84
2023/02/28 08:00:31;;;;;;;2.35;1.50;;;;;;;;;;5063643;28;20693;-85
2023/02/28 08:02:59;;;;;;;1.60;1.40;;;;;;;;;;5062025;28;21041;-85
2023/02/28 08:05:26;;;;;;;2.10;1.90;;;;;;;;;;5064844;28;20242;-86
2023/02/28 08:07:55;;;;;;;2.00;1.75;;;;;;;;;;5064777;28;20853;-85
2023/02/28 08:10:23;;;;;;;3.35;1.85;;;;;;;;;;5064543;28;20202;-86
2023/02/28 08:12:51;;;;;;;2.45;1.73;;;;;;;;;;5064500;28;20226;-86
2023/02/28 08:15:18;;;;;;;4.60;2.20;;;;;;;;;;5064872;28;20249;-85
2023/02/28 08:17:46;;;;;;;2.17;1.98;;;;;;;;;;5065939;28;20212;-85
2023/02/28 08:20:14;;;;;;;1.88;1.77;;;;;;;;;;5064756;28;20238;-85
2023/02/28 08:22:42;;;;;;;3.70;2.20;;;;;;;;;;5065516;28;20232;-85
2023/02/28 08:25:11;;;;;;;2.03;1.90;;;;;;;;;;5065015;28;20232;-85
2023/02/28 08:27:39;;;;;;;2.85;2.55;;;;;;;;;;5065495;28;20568;-86
2023/02/28 08:30:08;;;;;;;2.13;1.90;;;;;;;;;;5063409;28;20245;-85
2023/02/28 08:32:37;;;;;;;1.73;1.63;;;;;;;;;;5064352;28;20213;-85
2023/02/28 08:35:05;;;;;;;3.55;2.05;;;;;;;;;;5063850;28;20324;-85
2023/02/28 08:37:32;;;;;;;2.63;1.90;;;;;;;;;;5062450;28;20240;-84
2023/02/28 08:40:00;;;;;;;2.90;2.08;;;;;;;;;;5062144;28;20260;-86
2023/02/28 08:42:29;;;;;;;2.13;1.92;;;;;;;;;;5062231;28;20229;-85
2023/02/28 08:44:56;;;;;;;1.92;1.83;;;;;;;;;;5061825;28;20305;-85
2023/02/28 08:47:24;;;;;;;1.85;1.75;;;;;;;;;;5061229;28;20229;-85
2023/02/28 08:49:51;;;;;;;2.50;2.30;;;;;;;;;;5061085;28;20193;-85
2023/02/28 08:52:18;;;;;;;4.60;2.45;;;;;;;;;;5061347;28;20828;-84
2023/02/28 08:54:46;;;;;;;2.45;2.20;;;;;;;;;;5060097;28;20589;-86
2023/02/28 08:57:13;;;;;;;2.45;2.05;;;;;;;;;;5060318;28;20669;-86
2023/02/28 08:59:42;;;;;;;2.33;2.03;;;;;;;;;;5060702;28;20221;-84
2023/02/28 09:02:11;;;;;;;2.67;2.47;;;;;;;;;;5061437;28;20229;-85
2023/02/28 09:04:38;;;;;;;2.08;1.98;;;;;;;;;;5060783;28;20304;-85
2023/02/28 09:07:06;;;;;;;1.83;1.65;;;;;;;;;;5060088;28;20232;-85
2023/02/28 09:09:33;;;;;;;2.30;2.10;;;;;;;;;;5059977;28;20229;-86
2023/02/28 09:12:01;;;;;;;3.47;2.58;;;;;;;;;;5058889;28;20670;-86
2023/02/28 09:14:29;;;;;;;1.70;1.60;;;;;;;;;;5057852;28;20218;-86
2023/02/28 09:17:00;;;;;;;2.13;1.80;;;;;;;;;;5058727;28;20666;-86
2023/02/28 09:19:27;;;;;;;1.95;1.85;;;;;;;;;;5058509;28;20368;-87
2023/02/28 09:21:55;;;;;;;2.15;1.95;;;;;;;;;;5057943;28;20299;-86
2023/02/28 09:24:22;;;;;;;2.97;2.17;;;;;;;;;;5056381;28;20245;-86
2023/02/28 09:26:50;;;;;;;2.15;1.90;;;;;;;;;;5058143;28;20627;-86
2023/02/28 09:29:17;;;;;;;2.85;1.73;;;;;;;;;;5056526;28;20233;-85
2023/02/28 09:31:45;;;;;;;3.00;2.72;;;;;;;;;;5057199;28;20284;-85
2023/02/28 09:34:14;;;;;;;2.70;1.70;;;;;;;;;;5055856;28;20271;-86
2023/02/28 09:36:41;;;;;;;2.25;1.95;;;;;;;;;;5056396;28;20225;-86
2023/02/28 09:39:09;;;;;;;2.10;1.80;;;;;;;;;;5055449;28;20218;-87
2023/02/28 09:41:47;;;;;;;1.95;1.85;;;;;;;;;;5055237;28;20616;-86
2023/02/28 09:44:21;;;;;;;2.55;2.17;;;;;;;;;;5056655;28;20590;-87
2023/02/28 09:46:53;;;;;;;1.83;1.73;;;;;;;;;;5057154;28;20257;-86
2023/02/28 09:49:25;;;;;;;5.20;2.67;;;;;;;;;;5055548;28;20186;-87
2023/02/28 09:51:58;;;;;;;2.20;2.00;;;;;;;;;;5058284;28;20289;-86
2023/02/28 09:54:28;;;;;;;4.63;2.75;;;;;;;;;;5057730;28;20221;-85
2023/02/28 09:57:02;;;;;;;1.98;1.88;;;;;;;;;;5057384;28;20210;-86
2023/02/28 09:59:45;;;;;;;2.10;1.90;;;;;;;;;;5058485;28;20260;-86
2023/02/28 10:02:40;;;;;;;2.35;2.15;;;;;;;;;;5058384;28;20273;-86
2023/02/28 10:05:12;;;;;;;2.80;1.88;;;;;;;;;;5051645;28;20297;-86
2023/02/28 10:07:57;;;;;;;2.08;1.70;;;;;;;;;;5056711;28;20261;-87
2023/02/28 10:10:29;;;;;;;2.40;2.20;;;;;;;;;;5057807;28;20220;-87
2023/02/28 10:12:59;;;;;;;2.65;2.05;;;;;;;;;;5056340;28;20224;-87
2023/02/28 10:15:30;;;;;;;1.90;1.80;;;;;;;;;;5055822;28;20296;-86
2023/02/28 10:18:02;;;;;;;2.22;2.03;;;;;;;;;;5057232;28;20186;-87
2023/02/28 10:20:37;;;;;;;3.83;3.10;;;;;;;;;;5057065;28;20316;-86
2023/02/28 10:23:11;;;;;;;2.65;2.30;;;;;;;;;;5057584;28;20293;-86
2023/02/28 10:25:39;;;;;;;2.88;1.92;;;;;;;;;;5057537;28;20289;-87
2023/02/28 10:28:16;;;;;;;2.65;2.10;;;;;;;;;;5057094;28;20292;-87
2023/02/28 10:30:47;;;;;;;1.95;1.83;;;;;;;;;;5056869;28;20205;-86
2023/02/28 10:33:22;;;;;;;2.17;2.00;;;;;;;;;;5058502;28;20242;-87
2023/02/28 10:35:52;;;;;;;2.03;1.92;;;;;;;;;;5057921;28;20653;-87
2023/02/28 10:38:24;;;;;;;1.75;1.65;;;;;;;;;;5057755;28;20262;-87
2023/02/28 10:40:52;;;;;;;4.07;2.30;;;;;;;;;;5055834;28;20292;-87
2023/02/28 10:43:24;;;;;;;2.60;2.40;;;;;;;;;;5056348;28;20289;-86
2023/02/28 10:45:59;;;;;;;2.33;2.13;;;;;;;;;;5057095;28;20633;-86
2023/02/28 10:48:35;;;;;;;2.55;2.15;;;;;;;;;;5057088;28;20205;-86
2023/02/28 10:51:06;;;;;;;2.47;2.28;;;;;;;;;;5056442;28;20833;-86
2023/02/28 10:53:47;;;;;;;3.20;2.88;;;;;;;;;;5055825;28;20182;-88
2023/02/28 10:56:20;;;;;;;1.95;1.85;;;;;;;;;;5055176;28;20268;-86
2023/02/28 10:58:55;;;;;;;6.78;2.50;;;;;;;;;;5055847;28;20216;-86
2023/02/28 11:01:26;;;;;;;3.25;2.42;;;;;;;;;;5056531;28;20312;-86
2023/02/28 11:03:54;;;;;;;3.20;2.13;;;;;;;;;;5056815;28;20238;-86
2023/02/28 11:06:26;;;;;;;2.58;2.38;;;;;;;;;;5055776;28;20274;-86
2023/02/28 11:08:56;;;;;;;3.65;2.30;;;;;;;;;;5052385;28;20280;-85
2023/02/28 11:11:25;;;;;;;4.13;2.30;;;;;;;;;;5054663;28;20572;-85
2023/02/28 11:13:56;;;;;;;2.58;2.15;;;;;;;;;;5054857;28;20935;-84
2023/02/28 11:16:31;;;;;;;2.80;2.60;;;;;;;;;;5054908;28;20505;-84
2023/02/28 11:18:59;;;;;;;2.50;2.17;;;;;;;;;;5053188;28;20272;-84
2023/02/28 11:21:30;;;;;;;2.70;2.50;;;;;;;;;;5053362;28;20232;-84
2023/02/28 11:24:06;;;;;;;2.70;2.50;;;;;;;;;;5052652;28;20236;-84
2023/02/28 11:26:42;;;;;;;1.98;1.80;;;;;;;;;;5051881;28;20229;-85
2023/02/28 11:29:20;;;;;;;2.58;2.10;;;;;;;;;;5052393;28;20212;-84
2023/02/28 11:32:05;;;;;;;3.92;2.35;;;;;;;;;;5052633;28;20269;-84
2023/02/28 11:34:33;;;;;;;3.85;2.20;;;;;;;;;;5072481;28;20650;-84
2023/02/28 11:37:04;;;;;;;3.80;2.92;;;;;;;;;;5050551;28;20662;-84
2023/02/28 11:39:33;;;;;;;2.90;2.60;;;;;;;;;;5051869;28;20212;-84
2023/02/28 11:42:23;;;;;;;3.55;2.75;;;;;;;;;;5052793;28;20667;-85
2023/02/28 11:45:09;;;;;;;2.90;2.65;;;;;;;;;;5051776;28;20264;-85
2023/02/28 11:47:43;;;;;;;2.72;2.50;;;;;;;;;;5053378;28;20265;-83
2023/02/28 11:50:23;;;;;;;4.35;2.10;;;;;;;;;;5055089;28;20199;-85
2023/02/28 11:52:55;;;;;;;3.03;2.47;;;;;;;;;;5055459;28;20182;-85
2023/02/28 11:55:27;;;;;;;1.90;1.80;;;;;;;;;;5055310;28;20260;-85
2023/02/28 11:58:10;;;;;;;2.35;2.15;;;;;;;;;;5053929;28;20209;-86
2023/02/28 12:00:50;;;;;;;2.65;2.30;;;;;;;;;;5055229;28;20206;-85
2023/02/28 12:03:28;;;;;;;2.58;2.38;;;;;;;;;;5056934;28;20243;-84
2023/02/28 12:06:06;;;;;;;2.50;2.30;;;;;;;;;;5056101;28;20186;-84
2023/02/28 12:09:06;;;;;;;3.13;2.83;;;;;;;;;;5055818;28;20292;-85
2023/02/28 12:11:44;;;;;;;2.10;1.90;;;;;;;;;;5052572;28;20204;-84
2023/02/28 12:14:38;;;;;;;2.00;1.90;;;;;;;;;;5055920;28;20232;-84
2023/02/28 12:17:19;;;;;;;3.40;2.25;;;;;;;;;;5055534;28;20613;-85
2023/02/28 12:19:52;;;;;;;3.28;2.97;;;;;;;;;;5054999;28;20280;-86
2023/02/28 12:22:32;;;;;;;2.30;2.10;;;;;;;;;;5055199;28;20213;-85
2023/02/28 12:25:44;;;;;;;2.72;2.53;;;;;;;;;;5055034;28;20736;-85
2023/02/28 12:28:15;;;;;;;2.80;2.58;;;;;;;;;;5034563;28;20205;-84
2023/02/28 12:30:50;;;;;;;3.75;2.05;;;;;;;;;;5035702;28;20208;-85
2023/02/28 12:33:20;;;;;;;1.88;1.75;;;;;;;;;;5035745;28;20308;-85
2023/02/28 12:35:55;;;;;;;2.00;1.88;;;;;;;;;;5035764;28;20293;-84
2023/02/28 12:38:25;;;;;;;2.05;1.80;;;;;;;;;;5035920;28;20186;-84
2023/02/28 12:40:58;;;;;;;3.00;2.42;;;;;;;;;;5035900;28;20730;-84
2023/02/28 12:43:31;;;;;;;2.90;2.65;;;;;;;;;;5034667;28;20699;-85
2023/02/28 12:46:02;;;;;;;2.28;2.08;;;;;;;;;;5035141;28;20241;-84
2023/02/28 12:48:34;;;;;;;3.08;2.45;;;;;;;;;;5034995;28;20179;-85
2023/02/28 12:51:02;;;;;;;3.63;2.50;;;;;;;;;;5035239;28;20193;-84
2023/02/28 12:53:36;;;;;;;2.53;2.20;;;;;;;;;;5034511;28;20234;-85
2023/02/28 12:56:14;;;;;;;3.20;2.90;;;;;;;;;;5035266;28;20196;-84
2023/02/28 12:58:44;;;;;;;2.63;2.45;;;;;;;;;;5035585;28;20560;-84
2023/02/28 13:01:57;;;;;;;3.15;2.72;;;;;;;;;;5035712;28;20229;-84
2023/02/28 13:05:16;;;;;;;2.97;2.67;;;;;;;;;;4994565;28;20281;-85
2023/02/28 13:08:11;;;;;;;2.28;2.13;;;;;;;;;;4979394;28;20313;-85
2023/02/28 13:10:44;;;;;;;2.30;2.20;;;;;;;;;;5035338;28;20870;-84
2023/02/28 13:13:19;;;;;;;2.05;1.95;;;;;;;;;;5035341;28;20186;-85
2023/02/28 13:16:06;;;;;;;3.83;2.70;;;;;;;;;;5035820;28;20233;-85
2023/02/28 13:18:40;;;;;;;2.83;2.63;;;;;;;;;;5035361;28;20193;-84
2023/02/28 13:21:09;;;;;;;2.42;2.22;;;;;;;;;;5034048;28;20207;-84
2023/02/28 13:23:59;;;;;;;3.20;2.90;;;;;;;;;;5034641;28;20215;-84
2023/02/28 13:27:28;;;;;;;3.28;2.97;;;;;;;;;;5034746;28;20201;-85
2023/02/28 13:29:57;;;;;;;2.90;2.65;;;;;;;;;;5033534;28;20635;-84
2023/02/28 13:32:38;;;;;;;2.13;2.03;;;;;;;;;;5033927;28;20234;-84
2023/02/28 13:35:44;;;;;;;3.38;3.08;;;;;;;;;;5033852;28;20230;-85
2023/02/28 13:38:40;;;;;;;3.50;2.90;;;;;;;;;;5015457;28;20289;-84
2023/02/28 13:41:56;;;;;;;2.67;2.42;;;;;;;;;;5033707;28;20183;-85
2023/02/28 13:44:26;;;;;;;3.55;2.97;;;;;;;;;;4992019;28;20238;-85
2023/02/28 13:47:25;;;;;;;3.58;3.28;;;;;;;;;;5024696;28;20214;-84
2023/02/28 13:49:53;;;;;;;3.33;2.85;;;;;;;;;;5031816;28;20202;-84
2023/02/28 13:52:24;;;;;;;2.97;2.70;;;;;;;;;;5033291;28;20225;-85
2023/02/28 13:55:15;;;;;;;2.92;2.63;;;;;;;;;;5033394;28;20228;-85
2023/02/28 13:57:59;;;;;;;3.03;2.83;;;;;;;;;;5030719;28;20723;-85
2023/02/28 14:00:41;;;;;;;5.55;5.05;;;;;;;;;;5032994;28;20186;-85
2023/02/28 14:03:24;;;;;;;3.15;2.78;;;;;;;;;;5032751;28;20207;-86
2023/02/28 14:06:14;;;;;;;3.15;2.85;;;;;;;;;;5035415;28;20678;-83
2023/02/28 14:08:53;;;;;;;3.38;2.40;;;;;;;;;;5038171;28;20206;-83
2023/02/28 14:11:31;;;;;;;3.35;2.72;;;;;;;;;;5036450;28;20190;-84
2023/02/28 14:14:00;;;;;;;3.30;3.00;;;;;;;;;;5035218;28;20227;-84
2023/02/28 14:16:29;;;;;;;3.00;2.75;;;;;;;;;;5036442;28;20206;-84
2023/02/28 14:19:01;;;;;;;3.22;2.85;;;;;;;;;;5035559;28;20208;-84
2023/02/28 14:21:32;;;;;;;3.20;2.90;;;;;;;;;;5038938;28;20202;-83
2023/02/28 14:24:53;;;;;;;3.22;2.53;;;;;;;;;;5038885;28;20317;-84
2023/02/28 14:27:35;;;;;;;2.90;2.70;;;;;;;;;;4995668;28;20298;-83
2023/02/28 14:30:46;;;;;;;3.20;2.95;;;;;;;;;;5039605;28;20206;-83
2023/02/28 14:33:41;;;;;;;3.63;3.10;;;;;;;;;;4995987;28;20286;-84
2023/02/28 14:36:19;;;;;;;2.97;2.78;;;;;;;;;;5055102;28;20213;-85
2023/02/28 14:38:53;;;;;;;3.88;3.35;;;;;;;;;;5057898;28;20193;-84
2023/02/28 14:41:28;;;;;;;5.00;3.03;;;;;;;;;;5058918;28;20684;-83
2023/02/28 14:43:58;;;;;;;3.20;2.90;;;;;;;;;;5059093;28;20220;-83
2023/02/28 14:46:30;;;;;;;3.95;3.10;;;;;;;;;;5059131;28;20200;-84
2023/02/28 14:48:57;;;;;;;4.50;3.10;;;;;;;;;;5059251;28;20643;-83
2023/02/28 14:51:26;;;;;;;3.33;3.03;;;;;;;;;;5060045;28;20241;-82
2023/02/28 14:54:00;;;;;;;3.88;3.50;;;;;;;;;;5058736;28;20249;-84
2023/02/28 14:56:31;;;;;;;3.47;3.17;;;;;;;;;;5059665;28;20265;-83
2023/02/28 14:58:59;;;;;;;3.17;2.88;;;;;;;;;;5060080;28;20196;-83
2023/02/28 15:01:27;;;;;;;2.97;2.70;;;;;;;;;;5059736;28;20229;-82
2023/02/28 15:04:04;;;;;;;3.83;3.55;;;;;;;;;;5059375;28;20264;-83
2023/02/28 15:06:34;;;;;;;3.90;3.60;;;;;;;;;;5059448;28;20625;-83
2023/02/28 15:09:15;;;;;;;3.30;3.05;;;;;;;;;;5059246;28;20617;-82
2023/02/28 15:11:45;;;;;;;4.38;2.95;;;;;;;;;;5058841;28;20182;-84
2023/02/28 15:14:18;;;;;;;3.25;2.70;;;;;;;;;;5059683;28;20709;-82
2023/02/28 15:16:49;;;;;;;3.13;2.83;;;;;;;;;;5059575;28;20213;-84